createdAt,value
2018-07-15T00:01:49.188Z,10.37
2018-07-15T00:04:18.795Z,10.73
2018-07-15T00:06:48.200Z,10.27
2018-07-15T00:09:17.999Z,12.17
2018-07-15T00:11:47.514Z,11.28
2018-07-15T00:14:16.743Z,10.33
2018-07-15T00:16:46.704Z,10.72
2018-07-15T00:19:15.376Z,10.00
2018-07-15T00:21:44.147Z,10.60
2018-07-15T00:24:13.299Z,11.43
2018-07-15T00:26:41.883Z,9.90
2018-07-15T00:29:10.437Z,10.83
2018-07-15T00:31:39.019Z,11.53
2018-07-15T00:34:07.596Z,13.75
2018-07-15T00:36:36.173Z,12.97
2018-07-15T00:39:05.944Z,13.20
2018-07-15T00:41:34.504Z,11.27
2018-07-15T00:44:03.215Z,11.57
2018-07-15T00:46:31.873Z,10.97
2018-07-15T00:49:00.464Z,12.17
2018-07-15T00:51:29.141Z,12.60
2018-07-15T00:53:57.716Z,12.40
2018-07-15T00:56:26.266Z,12.00
2018-07-15T00:58:54.837Z,11.53
2018-07-15T01:01:23.387Z,13.07
2018-07-15T01:03:51.981Z,11.63
2018-07-15T01:06:20.554Z,12.80
2018-07-15T01:08:49.160Z,13.00
2018-07-15T01:11:17.745Z,11.90
2018-07-15T01:13:46.324Z,13.17
2018-07-15T01:16:14.877Z,15.17
2018-07-15T01:18:43.458Z,13.80
2018-07-15T01:21:12.008Z,14.20
2018-07-15T01:23:40.601Z,12.20
2018-07-15T01:26:09.165Z,12.40
2018-07-15T01:28:37.733Z,11.87
2018-07-15T01:31:06.336Z,11.67
2018-07-15T01:33:34.977Z,11.70
2018-07-15T01:36:03.584Z,11.20
2018-07-15T01:38:32.093Z,11.40
2018-07-15T01:41:00.601Z,11.77
2018-07-15T01:43:29.544Z,12.10
2018-07-15T01:45:58.061Z,11.77
2018-07-15T01:48:26.611Z,13.17
2018-07-15T01:50:55.140Z,12.10
2018-07-15T01:53:23.685Z,12.27
2018-07-15T01:55:52.197Z,13.77
2018-07-15T01:58:20.738Z,14.07
2018-07-15T02:00:49.241Z,14.53
2018-07-15T02:03:17.784Z,15.63
2018-07-15T02:05:46.300Z,15.03
2018-07-15T02:08:14.840Z,14.90
2018-07-15T02:10:43.354Z,14.97
2018-07-15T02:13:11.917Z,15.37
2018-07-15T02:15:40.469Z,15.58
2018-07-15T02:18:09.010Z,15.00
2018-07-15T02:20:37.532Z,13.70
2018-07-15T02:23:06.097Z,16.10
2018-07-15T02:25:34.769Z,19.12
2018-07-15T02:28:03.397Z,15.33
2018-07-15T02:30:31.984Z,15.57
2018-07-15T02:33:00.616Z,13.35
2018-07-15T02:35:29.688Z,14.85
2018-07-15T02:37:59.638Z,13.43
2018-07-15T02:40:28.413Z,13.37
2018-07-15T02:42:57.133Z,12.93
2018-07-15T02:45:25.684Z,13.93
2018-07-15T02:47:54.208Z,12.67
2018-07-15T02:50:22.780Z,13.20
2018-07-15T02:52:51.311Z,13.57
2018-07-15T02:55:19.897Z,13.33
2018-07-15T02:57:48.452Z,13.83
2018-07-15T03:00:17.021Z,13.45
2018-07-15T03:02:45.557Z,12.93
2018-07-15T03:05:14.128Z,12.57
2018-07-15T03:07:42.695Z,13.50
2018-07-15T03:10:11.269Z,13.43
2018-07-15T03:12:40.097Z,12.00
2018-07-15T03:15:09.748Z,12.60
2018-07-15T03:17:38.288Z,13.20
2018-07-15T03:20:06.853Z,15.57
2018-07-15T03:22:35.389Z,12.47
2018-07-15T03:25:04.001Z,14.18
2018-07-15T03:27:32.528Z,13.07
2018-07-15T03:30:01.097Z,13.07
2018-07-15T03:32:29.883Z,12.28
2018-07-15T03:34:58.456Z,12.73
2018-07-15T03:37:26.957Z,11.80
2018-07-15T03:39:55.573Z,12.10
2018-07-15T03:42:24.056Z,13.67
2018-07-15T03:44:52.601Z,11.90
2018-07-15T03:47:21.120Z,12.30
2018-07-15T03:49:49.652Z,11.87
2018-07-15T03:52:18.189Z,13.50
2018-07-15T03:54:46.737Z,11.60
2018-07-15T03:57:15.245Z,13.93
2018-07-15T03:59:43.792Z,13.87
2018-07-15T04:02:12.306Z,14.07
2018-07-15T04:04:40.862Z,11.10
2018-07-15T04:07:09.383Z,12.83
2018-07-15T04:09:37.930Z,12.53
2018-07-15T04:12:06.443Z,11.73
2018-07-15T04:14:34.989Z,12.50
2018-07-15T04:17:03.496Z,12.03
2018-07-15T04:19:32.092Z,11.83
2018-07-15T04:22:00.609Z,11.80
2018-07-15T04:24:30.124Z,13.30
2018-07-15T04:26:58.647Z,13.40
2018-07-15T04:29:27.152Z,12.37
2018-07-15T04:31:55.731Z,13.53
2018-07-15T04:34:24.276Z,13.17
2018-07-15T04:36:52.817Z,14.00
2018-07-15T04:39:21.344Z,12.03
2018-07-15T04:41:49.946Z,13.20
2018-07-15T04:44:18.421Z,13.63
2018-07-15T04:46:46.964Z,12.57
2018-07-15T04:49:15.473Z,13.60
2018-07-15T04:51:44.024Z,14.57
2018-07-15T04:54:12.545Z,15.00
2018-07-15T04:56:41.087Z,14.03
2018-07-15T04:59:09.600Z,13.07
2018-07-15T05:01:41.972Z,13.48
2018-07-15T05:04:11.439Z,12.30
2018-07-15T05:06:39.976Z,12.97
2018-07-15T05:09:08.555Z,12.70
2018-07-15T05:11:38.041Z,12.85
2018-07-15T05:14:07.013Z,12.57
2018-07-15T05:16:35.816Z,13.93
2018-07-15T05:19:04.384Z,12.93
2018-07-15T05:21:32.973Z,13.20
2018-07-15T05:24:01.505Z,13.67
2018-07-15T05:26:30.242Z,14.33
2018-07-15T05:28:58.757Z,13.57
2018-07-15T05:31:27.296Z,13.60
2018-07-15T05:33:55.840Z,14.53
2018-07-15T05:36:24.373Z,12.57
2018-07-15T05:38:52.897Z,12.97
2018-07-15T05:41:21.483Z,13.37
2018-07-15T05:43:50.024Z,12.07
2018-07-15T05:46:18.600Z,12.83
2018-07-15T05:48:47.117Z,12.00
2018-07-15T05:51:15.677Z,12.17
2018-07-15T05:53:44.189Z,11.20
2018-07-15T05:56:12.735Z,12.40
2018-07-15T05:58:41.264Z,12.80
2018-07-15T06:01:09.855Z,11.80
2018-07-15T06:03:38.378Z,11.40
2018-07-15T06:06:06.946Z,11.13
2018-07-15T06:08:35.452Z,12.58
2018-07-15T06:11:04.257Z,12.47
2018-07-15T06:13:32.767Z,12.13
2018-07-15T06:16:01.335Z,10.43
2018-07-15T06:18:30.444Z,11.78
2018-07-15T06:20:59.000Z,11.20
2018-07-15T06:23:27.540Z,11.30
2018-07-15T06:25:56.064Z,11.77
2018-07-15T06:28:24.600Z,10.23
2018-07-15T06:30:53.124Z,10.63
2018-07-15T06:33:21.676Z,11.10
2018-07-15T06:35:50.240Z,10.63
2018-07-15T06:38:18.782Z,10.23
2018-07-15T06:40:47.372Z,10.23
2018-07-15T06:43:15.921Z,10.77
2018-07-15T06:45:45.772Z,10.00
2018-07-15T06:48:14.309Z,10.03
2018-07-15T06:50:42.804Z,9.87
2018-07-15T06:53:11.328Z,9.27
2018-07-15T06:55:39.824Z,9.63
2018-07-15T06:58:08.366Z,8.70
2018-07-15T07:00:36.868Z,9.93
2018-07-15T07:03:05.486Z,9.00
2018-07-15T07:05:34.032Z,9.13
2018-07-15T07:08:02.734Z,8.48
2018-07-15T07:10:31.240Z,8.00
2018-07-15T07:13:05.189Z,8.20
2018-07-15T07:15:33.705Z,8.60
2018-07-15T07:18:06.554Z,8.50
2018-07-15T07:20:35.112Z,7.80
2018-07-15T07:23:03.694Z,7.87
2018-07-15T07:25:32.241Z,8.13
2018-07-15T07:28:00.792Z,7.13
2018-07-15T07:30:29.300Z,6.77
2018-07-15T07:32:57.876Z,6.87
2018-07-15T07:35:26.495Z,6.83
2018-07-15T07:37:55.142Z,6.63
2018-07-15T07:40:23.748Z,7.30
2018-07-15T07:42:52.311Z,7.03
2018-07-15T07:45:21.309Z,7.40
2018-07-15T07:47:49.872Z,6.70
2018-07-15T07:50:18.401Z,6.47
2018-07-15T07:52:46.955Z,6.70
2018-07-15T07:55:15.488Z,7.20
2018-07-15T07:57:44.917Z,6.63
2018-07-15T08:00:13.453Z,6.40
2018-07-15T08:02:42.041Z,6.27
2018-07-15T08:05:10.563Z,6.60
2018-07-15T08:07:39.184Z,6.30
2018-07-15T08:10:07.729Z,6.60
2018-07-15T08:12:36.309Z,6.60
2018-07-15T08:15:07.580Z,7.03
2018-07-15T08:17:36.373Z,6.53
2018-07-15T08:20:06.876Z,6.83
2018-07-15T08:22:38.902Z,6.97
2018-07-15T08:25:11.192Z,6.37
2018-07-15T08:27:52.868Z,6.40
2018-07-15T08:30:36.072Z,6.47
2018-07-15T08:33:15.074Z,6.40
2018-07-15T08:35:52.932Z,6.50
2018-07-15T08:38:32.978Z,6.53
2018-07-15T08:41:46.335Z,6.77
2018-07-15T08:44:29.730Z,6.93
2018-07-15T08:47:11.992Z,7.07
2018-07-15T08:49:52.064Z,6.57
2018-07-15T08:52:36.718Z,6.77
2018-07-15T08:55:18.331Z,6.30
2018-07-15T08:58:02.105Z,6.17
2018-07-15T09:03:26.042Z,5.33
2018-07-15T09:06:08.164Z,5.80
2018-07-15T09:08:48.553Z,6.73
2018-07-15T09:11:24.152Z,5.83
2018-07-15T09:14:01.337Z,6.27
2018-07-15T09:16:36.130Z,5.63
2018-07-15T09:19:14.796Z,6.20
2018-07-15T09:21:51.174Z,5.63
2018-07-15T09:24:28.031Z,6.50
2018-07-15T09:27:05.376Z,5.50
2018-07-15T09:29:41.894Z,5.87
2018-07-15T09:32:18.393Z,5.30
2018-07-15T09:34:55.507Z,5.45
2018-07-15T09:37:30.837Z,5.07
2018-07-15T09:40:04.876Z,4.90
2018-07-15T09:42:35.269Z,5.37
2018-07-15T09:45:04.485Z,5.30
2018-07-15T09:47:33.234Z,5.63
2018-07-15T09:50:02.758Z,5.50
2018-07-15T09:52:31.297Z,5.23
2018-07-15T09:54:59.854Z,5.90
2018-07-15T09:57:28.414Z,5.73
2018-07-15T10:00:07.848Z,5.30
2018-07-15T10:02:36.373Z,5.00
2018-07-15T10:05:04.959Z,5.20
2018-07-15T10:07:34.567Z,5.20
2018-07-15T10:10:03.134Z,5.37
2018-07-15T10:12:31.656Z,5.97
2018-07-15T10:15:00.497Z,5.20
2018-07-15T10:17:29.029Z,4.87
2018-07-15T10:20:04.076Z,4.90
2018-07-15T10:22:32.800Z,5.27
2018-07-15T10:25:01.357Z,5.07
2018-07-15T10:27:29.872Z,4.80
2018-07-15T10:29:58.417Z,5.00
2018-07-15T10:32:26.968Z,4.37
2018-07-15T10:34:55.544Z,4.70
2018-07-15T10:37:24.069Z,4.83
2018-07-15T10:39:52.621Z,4.80
2018-07-15T10:42:21.141Z,4.23
2018-07-15T10:44:49.696Z,4.62
2018-07-15T10:47:18.238Z,4.70
2018-07-15T10:49:54.297Z,4.60
2018-07-15T10:52:28.658Z,4.63
2018-07-15T10:55:02.762Z,5.17
2018-07-15T10:57:34.870Z,4.90
2018-07-15T11:00:05.535Z,4.63
2018-07-15T11:02:36.179Z,4.72
2018-07-15T11:05:07.370Z,4.37
2018-07-15T11:07:36.026Z,4.60
2018-07-15T11:10:09.008Z,4.70
2018-07-15T11:12:43.219Z,4.93
2018-07-15T11:15:13.998Z,4.67
2018-07-15T11:17:49.419Z,4.80
2018-07-15T11:20:22.058Z,4.43
2018-07-15T11:22:54.143Z,4.77
2018-07-15T11:25:25.600Z,4.50
2018-07-15T11:28:00.242Z,5.20
2018-07-15T11:30:28.980Z,5.17
2018-07-15T11:33:01.816Z,5.33
2018-07-15T11:35:35.844Z,4.47
2018-07-15T11:38:06.205Z,4.90
2018-07-15T11:40:41.621Z,5.37
2018-07-15T11:43:11.466Z,5.10
2018-07-15T11:45:47.102Z,5.20
2018-07-15T11:48:18.182Z,5.97
2018-07-15T11:50:46.941Z,4.70
2018-07-15T11:53:19.819Z,4.87
2018-07-15T11:55:53.487Z,5.17
2018-07-15T11:58:28.006Z,4.80
2018-07-15T12:00:59.699Z,5.20
2018-07-15T12:03:31.692Z,5.40
2018-07-15T12:06:01.431Z,5.33
2018-07-15T12:08:34.615Z,4.77
2018-07-15T12:11:07.900Z,5.20
2018-07-15T12:13:40.299Z,5.20
2018-07-15T12:16:13.644Z,6.03
2018-07-15T12:18:44.065Z,5.40
2018-07-15T12:21:14.670Z,4.50
2018-07-15T12:23:47.021Z,5.30
2018-07-15T12:26:20.591Z,5.23
2018-07-15T12:28:52.297Z,4.77
2018-07-15T12:31:22.009Z,5.20
2018-07-15T12:33:50.848Z,5.20
2018-07-15T12:36:25.365Z,5.17
2018-07-15T12:38:59.611Z,4.90
2018-07-15T12:41:30.009Z,4.57
2018-07-15T12:44:02.785Z,4.20
2018-07-15T12:46:37.546Z,4.60
2018-07-15T12:49:11.167Z,4.50
2018-07-15T12:51:43.525Z,4.77
2018-07-15T12:54:14.217Z,5.07
2018-07-15T12:56:47.148Z,6.07
2018-07-15T12:59:18.732Z,5.87
2018-07-15T13:01:47.449Z,4.93
2018-07-15T13:04:19.618Z,5.50
2018-07-15T13:06:51.459Z,5.60
2018-07-15T13:09:26.183Z,5.23
2018-07-15T13:12:00.451Z,5.37
2018-07-15T13:14:32.417Z,5.10
2018-07-15T13:17:01.699Z,6.00
2018-07-15T13:19:30.222Z,5.53
2018-07-15T13:21:58.776Z,6.10
2018-07-15T13:24:31.810Z,5.80
2018-07-15T13:27:00.722Z,6.20
2018-07-15T13:29:29.289Z,5.70
2018-07-15T13:31:57.909Z,6.43
2018-07-15T13:34:33.956Z,6.20
2018-07-15T13:37:02.844Z,6.40
2018-07-15T13:39:31.474Z,6.20
2018-07-15T13:42:00.076Z,5.80
2018-07-15T13:44:28.626Z,6.60
2018-07-15T13:46:57.185Z,6.00
2018-07-15T13:49:25.741Z,5.87
2018-07-15T13:51:54.317Z,6.07
2018-07-15T13:54:22.863Z,6.07
2018-07-15T13:56:51.390Z,6.57
2018-07-15T13:59:19.940Z,5.60
2018-07-15T14:01:48.474Z,6.37
2018-07-15T14:04:17.140Z,5.15
2018-07-15T14:06:45.625Z,5.27
2018-07-15T14:09:14.185Z,5.43
2018-07-15T14:11:42.721Z,5.57
2018-07-15T14:14:11.297Z,5.73
2018-07-15T14:16:41.311Z,6.03
2018-07-15T14:19:09.902Z,5.83
2018-07-15T14:21:38.696Z,5.67
2018-07-15T14:24:07.255Z,5.53
2018-07-15T14:26:35.876Z,5.57
2018-07-15T14:29:04.453Z,5.43
2018-07-15T14:31:33.017Z,5.40
2018-07-15T14:34:01.593Z,5.20
2018-07-15T14:36:30.096Z,5.10
2018-07-15T14:38:58.648Z,5.37
2018-07-15T14:41:27.185Z,4.60
2018-07-15T14:43:55.756Z,5.20
2018-07-15T14:46:24.317Z,5.47
2018-07-15T14:48:52.869Z,5.90
2018-07-15T14:51:21.383Z,5.10
2018-07-15T14:53:49.935Z,5.70
2018-07-15T14:56:18.513Z,5.13
2018-07-15T14:58:47.068Z,5.57
2018-07-15T15:01:15.581Z,5.50
2018-07-15T15:03:44.128Z,5.77
2018-07-15T15:06:12.628Z,5.50
2018-07-15T15:08:41.181Z,5.30
2018-07-15T15:11:09.705Z,5.23
2018-07-15T15:13:38.966Z,4.57
2018-07-15T15:16:07.497Z,4.60
2018-07-15T15:18:36.046Z,4.23
2018-07-15T15:21:04.572Z,4.23
2018-07-15T15:23:33.119Z,4.53
2018-07-15T15:26:01.644Z,4.53
2018-07-15T15:28:30.485Z,4.70
2018-07-15T15:30:58.993Z,4.80
2018-07-15T15:33:27.541Z,4.00
2018-07-15T15:35:56.125Z,3.75
2018-07-15T15:38:24.808Z,4.17
2018-07-15T15:40:53.344Z,4.20
2018-07-15T15:43:22.765Z,4.20
2018-07-15T15:45:51.308Z,3.83
2018-07-15T15:48:19.865Z,4.57
2018-07-15T15:50:48.404Z,3.97
2018-07-15T15:53:16.985Z,4.40
2018-07-15T15:55:45.561Z,4.00
2018-07-15T15:58:14.204Z,3.83
2018-07-15T16:00:42.720Z,3.97
2018-07-15T16:03:11.265Z,3.50
2018-07-15T16:05:40.072Z,3.47
2018-07-15T16:08:09.084Z,3.87
2018-07-15T16:10:37.654Z,4.20
2018-07-15T16:13:06.411Z,3.60
2018-07-15T16:15:35.009Z,3.97
2018-07-15T16:18:03.823Z,4.23
2018-07-15T16:20:32.418Z,4.07
2018-07-15T16:23:01.099Z,4.73
2018-07-15T16:25:29.669Z,3.60
2018-07-15T16:27:58.206Z,3.60
2018-07-15T16:30:26.768Z,3.50
2018-07-15T16:32:55.313Z,3.53
2018-07-15T16:35:24.182Z,3.57
2018-07-15T16:37:53.683Z,3.70
2018-07-15T16:40:22.299Z,3.33
2018-07-15T16:42:50.968Z,4.23
2018-07-15T16:45:19.857Z,4.10
2018-07-15T16:47:49.111Z,3.67
2018-07-15T16:50:17.721Z,4.00
2018-07-15T16:52:47.421Z,3.67
2018-07-15T16:55:17.580Z,3.95
2018-07-15T16:57:46.205Z,4.10
2018-07-15T17:00:14.772Z,3.50
2018-07-15T17:02:44.240Z,3.73
2018-07-15T17:05:14.340Z,3.60
2018-07-15T17:07:44.379Z,4.23
2018-07-15T17:10:14.900Z,4.77
2018-07-15T17:12:43.889Z,4.87
2018-07-15T17:15:12.862Z,4.53
2018-07-15T17:17:42.285Z,4.50
2018-07-15T17:20:11.979Z,5.00
2018-07-15T17:22:40.469Z,4.50
2018-07-15T17:25:09.401Z,4.05
2018-07-15T17:27:39.949Z,4.40
2018-07-15T17:30:09.654Z,4.20
2018-07-15T17:32:38.196Z,4.00
2018-07-15T17:35:07.646Z,3.97
2018-07-15T17:37:36.432Z,5.10
2018-07-15T17:40:06.268Z,5.17
2018-07-15T17:42:34.875Z,4.10
2018-07-15T17:45:03.423Z,4.20
2018-07-15T17:47:31.937Z,3.70
2018-07-15T17:50:00.528Z,3.87
2018-07-15T17:52:29.054Z,4.00
2018-07-15T17:54:57.605Z,4.10
2018-07-15T17:57:26.140Z,3.93
2018-07-15T17:59:54.688Z,4.87
2018-07-15T18:02:23.229Z,4.70
2018-07-15T18:04:51.759Z,4.40
2018-07-15T18:07:20.309Z,4.80
2018-07-15T18:09:48.813Z,4.40
2018-07-15T18:12:17.384Z,5.05
2018-07-15T18:14:46.013Z,5.13
2018-07-15T18:17:14.656Z,4.63
2018-07-15T18:19:43.314Z,5.60
2018-07-15T18:22:12.359Z,6.70
2018-07-15T18:24:40.910Z,6.43
2018-07-15T18:27:09.452Z,6.83
2018-07-15T18:29:38.547Z,6.20
2018-07-15T18:32:07.173Z,5.17
2018-07-15T18:34:35.764Z,5.50
2018-07-15T18:37:04.341Z,5.00
2018-07-15T18:39:32.861Z,5.47
2018-07-15T18:42:01.495Z,5.63
2018-07-15T18:44:30.393Z,5.40
2018-07-15T18:46:59.977Z,4.95
2018-07-15T18:49:28.697Z,5.43
2018-07-15T18:51:57.261Z,4.80
2018-07-15T18:54:25.806Z,4.75
2018-07-15T18:56:54.376Z,4.42
2018-07-15T18:59:23.673Z,5.10
2018-07-15T19:01:56.018Z,5.50
2018-07-15T19:04:27.487Z,5.13
2018-07-15T19:06:59.325Z,4.87
2018-07-15T19:09:28.013Z,5.35
2018-07-15T19:12:01.306Z,5.20
2018-07-15T19:14:31.075Z,5.62
2018-07-15T19:17:00.304Z,5.43
2018-07-15T19:19:31.602Z,4.53
2018-07-15T19:22:01.052Z,4.83
2018-07-15T19:24:33.523Z,4.47
2018-07-15T19:27:02.999Z,4.45
2018-07-15T19:29:36.024Z,4.53
2018-07-15T19:32:07.264Z,4.70
2018-07-15T19:34:36.969Z,4.70
2018-07-15T19:37:07.410Z,4.37
2018-07-15T19:39:39.360Z,4.40
2018-07-15T19:42:10.312Z,4.90
2018-07-15T19:44:41.268Z,4.80
2018-07-15T19:47:11.017Z,4.30
2018-07-15T19:49:39.788Z,4.73
2018-07-15T19:52:11.263Z,4.30
2018-07-15T19:54:44.774Z,4.70
2018-07-15T19:57:14.751Z,5.20
2018-07-15T19:59:43.346Z,4.27
2018-07-15T20:02:12.291Z,4.20
2018-07-15T20:04:40.837Z,4.63
2018-07-15T20:07:09.433Z,4.87
2018-07-15T20:09:38.794Z,4.57
2018-07-15T20:12:07.629Z,4.97
2018-07-15T20:14:36.272Z,4.80
2018-07-15T20:17:04.857Z,4.80
2018-07-15T20:19:33.406Z,4.60
2018-07-15T20:22:02.160Z,4.70
2018-07-15T20:24:30.704Z,4.53
2018-07-15T20:26:59.283Z,5.33
2018-07-15T20:29:28.517Z,5.10
2018-07-15T20:31:57.081Z,4.97
2018-07-15T20:34:25.790Z,5.42
2018-07-15T20:36:58.245Z,6.00
2018-07-15T20:39:30.665Z,5.03
2018-07-15T20:42:00.428Z,4.87
2018-07-15T20:44:34.987Z,5.13
2018-07-15T20:47:08.271Z,5.20
2018-07-15T20:49:43.441Z,5.37
2018-07-15T20:52:14.138Z,4.87
2018-07-15T20:54:48.035Z,4.90
2018-07-15T20:57:17.301Z,5.27
2018-07-15T20:59:45.902Z,5.63
2018-07-15T21:02:15.463Z,5.53
2018-07-15T21:04:51.271Z,4.60
2018-07-15T21:07:24.334Z,4.87
2018-07-15T21:10:00.299Z,5.30
2018-07-15T21:12:31.212Z,5.00
2018-07-15T21:15:01.256Z,5.03
2018-07-15T21:17:37.402Z,5.37
2018-07-15T21:20:08.146Z,4.87
2018-07-15T21:22:37.667Z,5.23
2018-07-15T21:25:09.628Z,5.10
2018-07-15T21:27:38.776Z,4.93
2018-07-15T21:30:07.851Z,5.47
2018-07-15T21:32:37.189Z,4.92
2018-07-15T21:35:07.465Z,5.10
2018-07-15T21:37:41.882Z,4.60
2018-07-15T21:40:17.359Z,5.13
2018-07-15T21:42:50.591Z,5.03
2018-07-15T21:45:21.431Z,5.55
2018-07-15T21:47:51.020Z,5.50
2018-07-15T21:50:20.465Z,5.10
2018-07-15T21:52:55.153Z,5.17
2018-07-15T21:55:25.072Z,4.90
2018-07-15T21:57:55.693Z,5.07
2018-07-15T22:00:25.013Z,5.90
2018-07-15T22:02:55.167Z,5.20
2018-07-15T22:05:24.023Z,5.47
2018-07-15T22:08:06.475Z,5.33
2018-07-15T22:10:42.418Z,5.70
2018-07-15T22:13:12.024Z,4.90
2018-07-15T22:15:42.214Z,6.00
2018-07-15T22:18:16.423Z,5.27
2018-07-15T22:20:49.015Z,5.23
2018-07-15T22:23:22.477Z,5.13
2018-07-15T22:25:55.734Z,5.90
2018-07-15T22:28:26.432Z,5.40
2018-07-15T22:31:02.045Z,5.70
2018-07-15T22:33:32.677Z,5.83
2018-07-15T22:36:05.096Z,5.50
2018-07-15T22:38:34.261Z,5.70
2018-07-15T22:41:03.974Z,5.37
2018-07-15T22:43:32.503Z,6.20
2018-07-15T22:46:01.152Z,6.17
2018-07-15T22:48:29.721Z,6.07
2018-07-15T22:50:58.292Z,5.57
2018-07-15T22:53:26.814Z,5.43
2018-07-15T22:55:55.645Z,5.57
2018-07-15T22:58:24.195Z,6.00
2018-07-15T23:00:52.914Z,5.70
2018-07-15T23:03:21.449Z,7.30
2018-07-15T23:06:01.601Z,7.00
2018-07-15T23:08:31.389Z,5.85
2018-07-15T23:11:00.101Z,7.20
2018-07-15T23:13:28.638Z,6.30
2018-07-15T23:15:57.203Z,6.93
2018-07-15T23:18:25.744Z,6.77
2018-07-15T23:20:54.329Z,6.13
2018-07-15T23:23:22.844Z,5.93
2018-07-15T23:25:51.404Z,5.60
2018-07-15T23:28:20.800Z,6.10
2018-07-15T23:30:49.357Z,6.20
2018-07-15T23:33:17.872Z,5.70
2018-07-15T23:35:46.481Z,6.20
2018-07-15T23:38:14.997Z,5.27
2018-07-15T23:40:43.537Z,5.80
2018-07-15T23:43:12.040Z,5.87
2018-07-15T23:45:40.836Z,5.80
2018-07-15T23:48:09.385Z,6.53
2018-07-15T23:50:37.917Z,5.97
2018-07-15T23:53:06.500Z,6.37
2018-07-15T23:55:35.132Z,6.77
2018-07-15T23:58:03.656Z,5.78
